Baltica — 9HA2607 — position and weather

sailwx.info

Track history (hours):
 
Tides and Currents Weather Stations Pressure Air Temp Water Temp Dewpoint Dewpoint Depression Visibility Wind Speed Wind Dir Waves Ship Positions

Baltica

Last reported at 2014-Aug-22 23:16 UTC. Time now 2014-Aug-23 19:21 UTC.
Position N 59°34' E 023°04'.

Length 157 m; draft 7 m.

Type: Ship (hazmat cat A). MMSI: 215013000.

Date/timePositionNaut miles runAvg speedWind from/ knotsBaromVisibWave heightAir tempDewpointWater temp
2014-Aug-22 23:16N 59°34' E 023°04'1217.3
2014-Aug-22 22:33N 59°38' E 023°27'2117.3
2014-Aug-22 21:21N 59°44' E 024°07'1516.9
2014-Aug-22 20:30N 59°48' E 024°34'2016.7
2014-Aug-22 19:18N 60°00' E 025°06'1313.3
2014-Aug-22 18:20N 60°13' E 025°12'0 0.0
2014-Aug-22 12:30N 60°13' E 025°12'0 0.0
2014-Aug-22 10:18N 60°13' E 025°12'0 0.0
2014-Aug-22 07:30N 60°13' E 025°12'0 0.0
2014-Aug-22 06:33N 60°13' E 025°12'0 0.0
2014-Aug-22 05:32N 60°13' E 025°12'1210.7
2014-Aug-22 04:27N 60°02' E 025°07'1616.4
2014-Aug-22 03:28N 59°49' E 024°48'1516.8
2014-Aug-22 02:33N 59°43' E 024°20'1717.0
2014-Aug-22 01:33N 59°38' E 023°47'30016.4
2014-Aug-21 07:16N 55°15' E 019°19'1217.3
2014-Aug-21 06:34N 55°03' E 019°11'1817.6
2014-Aug-21 05:33N 54°46' E 019°01'1717.0
2014-Aug-21 04:33N 54°32' E 018°46'9 8.3
2014-Aug-21 03:31N 54°32' E 018°31'0 0.0
2014-Aug-21 02:31N 54°32' E 018°31'0 0.0
2014-Aug-21 01:31N 54°32' E 018°31'0 0.0
2014-Aug-21 00:31N 54°32' E 018°31'0 0.0
2014-Aug-20 23:31N 54°32' E 018°31'0 0.0
2014-Aug-20 22:31N 54°32' E 018°31'1 1.6
2014-Aug-20 21:33N 54°32' E 018°34'1313.2
2014-Aug-20 20:34N 54°38' E 018°55'1716.9
2014-Aug-20 19:33N 54°54' E 019°04'1616.0
2014-Aug-20 18:34N 55°09' E 019°14'29414.5
2014-Aug-19 22:21N 59°35' E 023°05'1215.4
2014-Aug-19 21:33N 59°38' E 023°28'2115.9
2014-Aug-19 20:12N 59°45' E 024°09'2816.2
2014-Aug-19 18:29N 59°56' E 024°59'1516.3
2014-Aug-19 17:33N 60°09' E 025°13'3 3.3
2014-Aug-19 16:31N 60°13' E 025°12'0 0.0
2014-Aug-19 15:04N 60°13' E 025°12'0 0.0
2014-Aug-19 14:25N 60°13' E 025°12'0 0.0
2014-Aug-19 13:10N 60°13' E 025°12'0 0.0
2014-Aug-19 12:31N 60°13' E 025°12'0 0.0
2014-Aug-19 11:31N 60°13' E 025°12'0 0.0
2014-Aug-19 10:25N 60°13' E 025°12'0 0.0
2014-Aug-19 09:31N 60°13' E 025°12'0 0.0
2014-Aug-19 08:28N 60°13' E 025°12'0 0.0
2014-Aug-19 07:25N 60°13' E 025°12'0 0.0
2014-Aug-19 04:13N 60°13' E 025°12'0 0.0
2014-Aug-19 03:25N 60°13' E 025°12'0 0.0
2014-Aug-18 18:25N 60°13' E 025°12'0 0.0
2014-Aug-18 17:19N 60°13' E 025°12'0 0.0
2014-Aug-18 16:31N 60°13' E 025°12'0 0.0
2014-Aug-18 15:31N 60°13' E 025°12'0 0.0
2014-Aug-18 14:31N 60°13' E 025°12'0 0.0
2014-Aug-18 13:31N 60°13' E 025°12'0 0.0
2014-Aug-18 12:31N 60°13' E 025°12'0 0.0
2014-Aug-18 11:31N 60°13' E 025°12'0 0.0
2014-Aug-18 10:31N 60°13' E 025°12'0 0.0
2014-Aug-18 09:28N 60°13' E 025°12'0 0.0
2014-Aug-18 08:31N 60°13' E 025°12'0 0.0
2014-Aug-18 07:28N 60°13' E 025°12'0 0.0
2014-Aug-18 06:31N 60°13' E 025°12'0 0.0
2014-Aug-18 05:33N 60°13' E 025°12'1110.7
2014-Aug-18 04:31N 60°02' E 025°07'4816.0
2014-Aug-18 01:30N 59°37' E 023°44'29616.5
2014-Aug-17 07:33N 55°18' E 019°21'1818.4
2014-Aug-17 06:33N 55°00' E 019°10'1818.5
2014-Aug-17 05:33N 54°43' E 018°59'1515.5
2014-Aug-17 04:33N 54°32' E 018°41'5 5.3
2014-Aug-17 03:32N 54°32' E 018°31'0 0.0
2014-Aug-17 02:32N 54°32' E 018°31'0 0.0
2014-Aug-17 01:32N 54°32' E 018°31'0 0.0
2014-Aug-17 00:32N 54°32' E 018°31'0 0.0
2014-Aug-16 23:32N 54°32' E 018°31'0 0.0
2014-Aug-16 22:32N 54°32' E 018°31'0 0.0
2014-Aug-16 21:32N 54°32' E 018°31'0 0.1
2014-Aug-16 20:33N 54°32' E 018°31'8 8.1
2014-Aug-16 19:34N 54°32' E 018°45'1515.4
2014-Aug-16 18:34N 54°45' E 018°59'1616.2
2014-Aug-16 17:33N 55°01' E 019°08'30316.0
2014-Aug-15 22:34N 59°36' E 023°06'1817.6
2014-Aug-15 21:33N 59°40' E 023°40'4916.4
2014-Aug-15 18:33N 60°03' E 025°08'10 0.9
2014-Aug-15 07:03N 60°13' E 025°13'510.6
2014-Aug-15 06:32N 60°07' E 025°12'5116.9
2014-Aug-15 03:32N 59°38' E 023°49'29916.3
2014-Aug-14 09:15N 55°17' E 019°20'1115.8
2014-Aug-14 08:34N 55°07' E 019°14'1615.9
2014-Aug-14 07:34N 54°51' E 019°05'1616.2
2014-Aug-14 06:34N 54°36' E 018°55'1312.8
2014-Aug-14 05:33N 54°32' E 018°34'1 1.2
2014-Aug-14 04:32N 54°32' E 018°32'0 0.0
2014-Aug-14 03:32N 54°32' E 018°32'0 0.0
2014-Aug-14 02:32N 54°32' E 018°32'0 0.0
2014-Aug-14 01:32N 54°32' E 018°32'0 0.0
2014-Aug-14 00:32N 54°32' E 018°32'0 0.0
2014-Aug-13 23:32N 54°32' E 018°32'0 0.0
2014-Aug-13 22:32N 54°32' E 018°32'4 4.0
2014-Aug-13 21:33N 54°32' E 018°38'1414.4
2014-Aug-13 20:34N 54°41' E 018°58'1717.0
2014-Aug-13 19:34N 54°57' E 019°07'1717.1
2014-Aug-13 18:34N 55°14' E 019°15'29016.0
2014-Aug-13 00:30N 59°35' E 023°09'1616.7
2014-Aug-12 23:34N 59°39' E 023°39'  
Track history (hours):
 
Tides and Currents Weather Stations Pressure Air Temp Water Temp Dewpoint Dewpoint Depression Visibility Wind Speed Wind Dir Waves Ship Positions

Baltica

Last reported at 2014-Aug-22 23:16 UTC. Time now 2014-Aug-23 19:21 UTC.
Position N 59°34' E 023°04'.

Length 157 m; draft 7 m.

Type: Ship (hazmat cat A). MMSI: 215013000.

Date/timePositionNaut miles runAvg speedWind from/ knotsBaromVisibWave heightAir tempDewpointWater temp
2014-Aug-22 23:16N 59°34' E 023°04'1217.3
2014-Aug-22 22:33N 59°38' E 023°27'2117.3
2014-Aug-22 21:21N 59°44' E 024°07'1516.9
2014-Aug-22 20:30N 59°48' E 024°34'2016.7
2014-Aug-22 19:18N 60°00' E 025°06'1313.3
2014-Aug-22 18:20N 60°13' E 025°12'0 0.0
2014-Aug-22 12:30N 60°13' E 025°12'0 0.0
2014-Aug-22 10:18N 60°13' E 025°12'0 0.0
2014-Aug-22 07:30N 60°13' E 025°12'0 0.0
2014-Aug-22 06:33N 60°13' E 025°12'0 0.0
2014-Aug-22 05:32N 60°13' E 025°12'1210.7
2014-Aug-22 04:27N 60°02' E 025°07'1616.4
2014-Aug-22 03:28N 59°49' E 024°48'1516.8
2014-Aug-22 02:33N 59°43' E 024°20'1717.0
2014-Aug-22 01:33N 59°38' E 023°47'30016.4
2014-Aug-21 07:16N 55°15' E 019°19'1217.3
2014-Aug-21 06:34N 55°03' E 019°11'1817.6
2014-Aug-21 05:33N 54°46' E 019°01'1717.0
2014-Aug-21 04:33N 54°32' E 018°46'9 8.3
2014-Aug-21 03:31N 54°32' E 018°31'0 0.0
2014-Aug-21 02:31N 54°32' E 018°31'0 0.0
2014-Aug-21 01:31N 54°32' E 018°31'0 0.0
2014-Aug-21 00:31N 54°32' E 018°31'0 0.0
2014-Aug-20 23:31N 54°32' E 018°31'0 0.0
2014-Aug-20 22:31N 54°32' E 018°31'1 1.6
2014-Aug-20 21:33N 54°32' E 018°34'1313.2
2014-Aug-20 20:34N 54°38' E 018°55'1716.9
2014-Aug-20 19:33N 54°54' E 019°04'1616.0
2014-Aug-20 18:34N 55°09' E 019°14'29414.5
2014-Aug-19 22:21N 59°35' E 023°05'1215.4
2014-Aug-19 21:33N 59°38' E 023°28'2115.9
2014-Aug-19 20:12N 59°45' E 024°09'2816.2
2014-Aug-19 18:29N 59°56' E 024°59'1516.3
2014-Aug-19 17:33N 60°09' E 025°13'3 3.3
2014-Aug-19 16:31N 60°13' E 025°12'0 0.0
2014-Aug-19 15:04N 60°13' E 025°12'0 0.0
2014-Aug-19 14:25N 60°13' E 025°12'0 0.0
2014-Aug-19 13:10N 60°13' E 025°12'0 0.0
2014-Aug-19 12:31N 60°13' E 025°12'0 0.0
2014-Aug-19 11:31N 60°13' E 025°12'0 0.0
2014-Aug-19 10:25N 60°13' E 025°12'0 0.0
2014-Aug-19 09:31N 60°13' E 025°12'0 0.0
2014-Aug-19 08:28N 60°13' E 025°12'0 0.0
2014-Aug-19 07:25N 60°13' E 025°12'0 0.0
2014-Aug-19 04:13N 60°13' E 025°12'0 0.0
2014-Aug-19 03:25N 60°13' E 025°12'0 0.0
2014-Aug-18 18:25N 60°13' E 025°12'0 0.0
2014-Aug-18 17:19N 60°13' E 025°12'0 0.0
2014-Aug-18 16:31N 60°13' E 025°12'0 0.0
2014-Aug-18 15:31N 60°13' E 025°12'0 0.0
2014-Aug-18 14:31N 60°13' E 025°12'0 0.0
2014-Aug-18 13:31N 60°13' E 025°12'0 0.0
2014-Aug-18 12:31N 60°13' E 025°12'0 0.0
2014-Aug-18 11:31N 60°13' E 025°12'0 0.0
2014-Aug-18 10:31N 60°13' E 025°12'0 0.0
2014-Aug-18 09:28N 60°13' E 025°12'0 0.0
2014-Aug-18 08:31N 60°13' E 025°12'0 0.0
2014-Aug-18 07:28N 60°13' E 025°12'0 0.0
2014-Aug-18 06:31N 60°13' E 025°12'0 0.0
2014-Aug-18 05:33N 60°13' E 025°12'1110.7
2014-Aug-18 04:31N 60°02' E 025°07'4816.0
2014-Aug-18 01:30N 59°37' E 023°44'29616.5
2014-Aug-17 07:33N 55°18' E 019°21'1818.4
2014-Aug-17 06:33N 55°00' E 019°10'1818.5
2014-Aug-17 05:33N 54°43' E 018°59'1515.5
2014-Aug-17 04:33N 54°32' E 018°41'5 5.3
2014-Aug-17 03:32N 54°32' E 018°31'0 0.0
2014-Aug-17 02:32N 54°32' E 018°31'0 0.0
2014-Aug-17 01:32N 54°32' E 018°31'0 0.0
2014-Aug-17 00:32N 54°32' E 018°31'0 0.0
2014-Aug-16 23:32N 54°32' E 018°31'0 0.0
2014-Aug-16 22:32N 54°32' E 018°31'0 0.0
2014-Aug-16 21:32N 54°32' E 018°31'0 0.1
2014-Aug-16 20:33N 54°32' E 018°31'8 8.1
2014-Aug-16 19:34N 54°32' E 018°45'1515.4
2014-Aug-16 18:34N 54°45' E 018°59'1616.2
2014-Aug-16 17:33N 55°01' E 019°08'30316.0
2014-Aug-15 22:34N 59°36' E 023°06'1817.6
2014-Aug-15 21:33N 59°40' E 023°40'4916.4
2014-Aug-15 18:33N 60°03' E 025°08'10 0.9
2014-Aug-15 07:03N 60°13' E 025°13'510.6
2014-Aug-15 06:32N 60°07' E 025°12'5116.9
2014-Aug-15 03:32N 59°38' E 023°49'29916.3
2014-Aug-14 09:15N 55°17' E 019°20'1115.8
2014-Aug-14 08:34N 55°07' E 019°14'1615.9
2014-Aug-14 07:34N 54°51' E 019°05'1616.2
2014-Aug-14 06:34N 54°36' E 018°55'1312.8
2014-Aug-14 05:33N 54°32' E 018°34'1 1.2
2014-Aug-14 04:32N 54°32' E 018°32'0 0.0
2014-Aug-14 03:32N 54°32' E 018°32'0 0.0
2014-Aug-14 02:32N 54°32' E 018°32'0 0.0
2014-Aug-14 01:32N 54°32' E 018°32'0 0.0
2014-Aug-14 00:32N 54°32' E 018°32'0 0.0
2014-Aug-13 23:32N 54°32' E 018°32'0 0.0
2014-Aug-13 22:32N 54°32' E 018°32'4 4.0
2014-Aug-13 21:33N 54°32' E 018°38'1414.4
2014-Aug-13 20:34N 54°41' E 018°58'1717.0
2014-Aug-13 19:34N 54°57' E 019°07'1717.1
2014-Aug-13 18:34N 55°14' E 019°15'29016.0
2014-Aug-13 00:30N 59°35' E 023°09'1616.7
2014-Aug-12 23:34N 59°39' E 023°39'  

Dump ship's entire track history